createdAt,value
2017-04-07T00:00:19.100Z,3.74
2017-04-07T00:01:29.039Z,3.73
2017-04-07T00:02:39.297Z,3.58
2017-04-07T00:03:49.561Z,3.66
2017-04-07T00:04:59.816Z,3.68
2017-04-07T00:06:10.072Z,3.56
2017-04-07T00:07:19.702Z,3.55
2017-04-07T00:08:29.958Z,3.53
2017-04-07T00:09:40.220Z,3.48
2017-04-07T00:10:50.475Z,3.43
2017-04-07T00:12:00.444Z,3.43
2017-04-07T00:13:10.394Z,3.34
2017-04-07T00:14:20.653Z,3.48
2017-04-07T00:15:30.917Z,3.31
2017-04-07T00:16:41.176Z,3.26
2017-04-07T00:17:51.428Z,3.19
2017-04-07T00:19:01.701Z,3.33
2017-04-07T00:20:11.334Z,3.22
2017-04-07T00:21:21.586Z,3.18
2017-04-07T00:22:31.846Z,3.13
2017-04-07T00:23:42.128Z,3.12
2017-04-07T00:24:52.378Z,3.16
2017-04-07T00:26:02.634Z,3.18
2017-04-07T00:27:12.579Z,3.13
2017-04-07T00:28:22.836Z,3.06
2017-04-07T00:29:33.102Z,3.12
2017-04-07T00:30:43.360Z,2.95
2017-04-07T00:31:53.619Z,2.95
2017-04-07T00:33:03.885Z,3.06
2017-04-07T00:34:13.825Z,3.01
2017-04-07T00:35:24.077Z,2.93
2017-04-07T00:36:34.344Z,2.94
2017-04-07T00:37:44.605Z,2.98
2017-04-07T00:38:54.860Z,3
2017-04-07T00:40:05.122Z,3
2017-04-07T00:41:15.380Z,2.82
2017-04-07T00:42:25.637Z,2.93
2017-04-07T00:43:35.895Z,2.72
2017-04-07T00:44:46.148Z,2.68
2017-04-07T00:45:56.406Z,2.72
2017-04-07T00:47:06.668Z,2.68
2017-04-07T00:48:16.919Z,2.65
2017-04-07T00:49:27.185Z,2.61
2017-04-07T00:50:37.451Z,2.54
2017-04-07T00:51:47.710Z,2.62
2017-04-07T00:52:57.963Z,2.5
2017-04-07T00:54:08.215Z,2.5
2017-04-07T00:55:18.152Z,2.41
2017-04-07T00:56:28.408Z,2.4
2017-04-07T00:57:38.665Z,2.4
2017-04-07T00:58:48.599Z,2.37
2017-04-07T00:59:58.850Z,2.41
2017-04-07T01:01:09.111Z,2.34
2017-04-07T01:02:19.371Z,2.28
2017-04-07T01:03:29.632Z,2.32
2017-04-07T01:04:39.891Z,2.22
2017-04-07T01:05:50.156Z,2.16
2017-04-07T01:07:00.422Z,2.22
2017-04-07T01:08:10.683Z,2.15
2017-04-07T01:09:20.937Z,2.18
2017-04-07T01:10:31.189Z,2.12
2017-04-07T01:11:41.127Z,2.15
2017-04-07T01:12:51.378Z,2.16
2017-04-07T01:14:01.632Z,2.16
2017-04-07T01:15:11.889Z,2.12
2017-04-07T01:16:22.148Z,2.21
2017-04-07T01:17:32.405Z,2.21
2017-04-07T01:18:42.665Z,2.19
2017-04-07T01:19:52.917Z,2.23
2017-04-07T01:21:03.181Z,2.28
2017-04-07T01:22:13.446Z,2.28
2017-04-07T01:23:23.698Z,2.28
2017-04-07T01:24:33.644Z,2.37
2017-04-07T01:25:43.910Z,2.4
2017-04-07T01:26:54.168Z,2.4
2017-04-07T01:28:04.428Z,2.37
2017-04-07T01:29:14.690Z,2.26
2017-04-07T01:30:24.940Z,2.28
2017-04-07T01:31:35.198Z,2.18
2017-04-07T01:32:45.461Z,2.16
2017-04-07T01:33:55.713Z,2.22
2017-04-07T01:35:05.961Z,2.14
2017-04-07T01:36:16.217Z,2.16
2017-04-07T01:37:26.508Z,2.16
2017-04-07T01:38:36.780Z,2.18
2017-04-07T01:39:47.030Z,2.15
2017-04-07T01:40:57.285Z,2.12
2017-04-07T01:42:07.541Z,2.05
2017-04-07T01:43:17.797Z,2.1
2017-04-07T01:44:28.055Z,2
2017-04-07T01:45:37.999Z,1.95
2017-04-07T01:50:39.724Z,2.03
2017-04-07T01:51:49.983Z,2.04
2017-04-07T01:53:00.244Z,2
2017-04-07T01:54:10.495Z,2.01
2017-04-07T01:55:20.747Z,1.97
2017-04-07T01:56:31.010Z,1.88
2017-04-07T01:57:41.265Z,1.86
2017-04-07T01:58:51.523Z,1.93
2017-04-07T02:00:01.471Z,1.84
2017-04-07T02:01:11.753Z,1.88
2017-04-07T02:02:22.005Z,2
2017-04-07T02:03:32.259Z,1.89
2017-04-07T02:04:42.205Z,1.79
2017-04-07T02:05:52.461Z,1.74
2017-04-07T02:07:02.719Z,1.58
2017-04-07T02:08:12.990Z,1.53
2017-04-07T02:09:22.933Z,1.36
2017-04-07T02:10:33.191Z,1.38
2017-04-07T02:11:43.454Z,1.34
2017-04-07T02:12:53.707Z,1.25
2017-04-07T02:14:03.962Z,1.24
2017-04-07T02:15:14.212Z,1.18
2017-04-07T02:16:24.460Z,1.21
2017-04-07T02:17:34.709Z,1.16
2017-04-07T02:18:44.968Z,1.2
2017-04-07T02:19:54.910Z,1.07
2017-04-07T02:21:05.164Z,1.13
2017-04-07T02:22:15.421Z,1.04
2017-04-07T02:23:25.370Z,1.06
2017-04-07T02:24:35.626Z,1.04
2017-04-07T02:25:45.874Z,1.04
2017-04-07T02:26:56.131Z,1.1
2017-04-07T02:28:06.388Z,1.03
2017-04-07T02:29:16.639Z,0.96
2017-04-07T02:30:26.269Z,1.03
2017-04-07T02:31:35.899Z,0.95
2017-04-07T02:32:46.162Z,1.04
2017-04-07T02:33:56.107Z,1.03
2017-04-07T02:35:06.366Z,1.06
2017-04-07T02:36:16.311Z,1
2017-04-07T02:37:26.581Z,1.03
2017-04-07T02:38:36.523Z,1.03
2017-04-07T02:39:46.776Z,1.12
2017-04-07T02:40:56.727Z,1.14
2017-04-07T02:42:06.988Z,1.09
2017-04-07T02:43:17.241Z,1.18
2017-04-07T02:44:27.490Z,1.21
2017-04-07T02:45:37.429Z,1.2
2017-04-07T02:46:47.691Z,1.28
2017-04-07T02:47:57.941Z,1.36
2017-04-07T02:49:08.195Z,1.31
2017-04-07T02:50:18.457Z,1.36
2017-04-07T02:51:28.718Z,1.38
2017-04-07T02:52:38.976Z,1.38
2017-04-07T02:53:49.235Z,1.43
2017-04-07T02:54:59.487Z,1.49
2017-04-07T02:56:09.747Z,1.53
2017-04-07T02:57:20.008Z,1.57
2017-04-07T02:58:30.270Z,1.66
2017-04-07T02:59:40.527Z,1.75
2017-04-07T03:00:50.783Z,1.7
2017-04-07T03:02:01.035Z,1.75
2017-04-07T03:03:11.286Z,1.75
2017-04-07T03:04:21.548Z,1.74
2017-04-07T03:05:31.806Z,1.81
2017-04-07T03:06:41.747Z,1.7
2017-04-07T03:07:51.999Z,1.61
2017-04-07T03:09:02.248Z,1.67
2017-04-07T03:10:12.506Z,1.63
2017-04-07T03:11:22.762Z,1.56
2017-04-07T03:12:33.019Z,1.64
2017-04-07T03:13:43.270Z,1.53
2017-04-07T03:14:53.212Z,1.56
2017-04-07T03:16:02.875Z,1.53
2017-04-07T03:17:13.135Z,1.52
2017-04-07T03:18:23.405Z,1.48
2017-04-07T03:19:33.668Z,1.5
2017-04-07T03:20:43.930Z,1.48
2017-04-07T03:21:54.185Z,1.34
2017-04-07T03:23:04.434Z,1.36
2017-04-07T03:24:14.377Z,1.4
2017-04-07T03:25:24.633Z,1.32
2017-04-07T03:26:34.892Z,1.3
2017-04-07T03:27:44.829Z,1.24
2017-04-07T03:28:55.082Z,1.27
2017-04-07T03:30:05.339Z,1.25
2017-04-07T03:31:15.284Z,1.21
2017-04-07T03:32:25.543Z,1.14
2017-04-07T03:33:35.484Z,1.13
2017-04-07T03:34:45.431Z,1.18
2017-04-07T03:35:55.692Z,1.12
2017-04-07T03:37:05.325Z,1.09
2017-04-07T03:38:15.580Z,1.07
2017-04-07T03:39:25.833Z,1.07
2017-04-07T03:40:35.779Z,1.03
2017-04-07T03:41:46.031Z,1.1
2017-04-07T03:42:56.289Z,1.06
2017-04-07T03:44:06.547Z,1.03
2017-04-07T03:45:16.488Z,0.96
2017-04-07T03:46:26.743Z,1
2017-04-07T03:47:36.997Z,0.96
2017-04-07T03:48:47.257Z,0.92
2017-04-07T03:49:57.517Z,0.88
2017-04-07T03:51:07.773Z,0.96
2017-04-07T03:52:18.032Z,0.91
2017-04-07T03:53:28.285Z,0.94
2017-04-07T03:54:38.543Z,0.88
2017-04-07T03:55:48.801Z,0.96
2017-04-07T03:56:59.047Z,1.02
2017-04-07T03:58:09.304Z,1
2017-04-07T03:59:19.553Z,1
2017-04-07T04:00:29.809Z,1.03
2017-04-07T04:01:40.067Z,1.04
2017-04-07T04:02:50.328Z,1.02
2017-04-07T04:04:00.581Z,0.92
2017-04-07T04:05:10.858Z,1
2017-04-07T04:06:21.119Z,0.94
2017-04-07T04:07:31.402Z,0.99
2017-04-07T04:08:41.024Z,1.09
2017-04-07T04:09:51.276Z,1.1
2017-04-07T04:11:01.532Z,0.96
2017-04-07T04:12:11.786Z,1.04
2017-04-07T04:13:22.047Z,1.06
2017-04-07T04:14:31.990Z,1.03
2017-04-07T04:15:41.932Z,0.99
2017-04-07T04:16:52.219Z,0.89
2017-04-07T04:18:02.474Z,0.85
2017-04-07T04:19:12.734Z,0.84
2017-04-07T04:20:22.992Z,0.78
2017-04-07T04:21:33.246Z,0.81
2017-04-07T04:22:43.506Z,0.81
2017-04-07T04:23:53.760Z,0.73
2017-04-07T04:25:04.017Z,0.76
2017-04-07T04:26:14.279Z,0.81
2017-04-07T04:27:24.536Z,0.82
2017-04-07T04:28:34.783Z,0.81
2017-04-07T04:29:45.042Z,0.82
2017-04-07T04:30:55.295Z,0.86
2017-04-07T04:32:05.236Z,0.86
2017-04-07T04:33:15.491Z,0.82
2017-04-07T04:34:25.431Z,0.91
2017-04-07T04:35:35.700Z,0.89
2017-04-07T04:36:45.962Z,0.91
2017-04-07T04:37:56.220Z,0.89
2017-04-07T04:39:06.476Z,1.02
2017-04-07T04:40:16.733Z,1.02
2017-04-07T04:41:26.673Z,1.06
2017-04-07T04:42:36.611Z,1.1
2017-04-07T04:43:46.237Z,1.12
2017-04-07T04:44:56.495Z,1.18
2017-04-07T04:46:06.749Z,1.14
2017-04-07T04:47:16.688Z,1.1
2017-04-07T04:48:26.946Z,1.27
2017-04-07T04:49:37.195Z,1.22
2017-04-07T04:50:47.447Z,1.18
2017-04-07T04:51:57.709Z,1.25
2017-04-07T04:53:07.961Z,1.18
2017-04-07T04:54:18.210Z,1.09
2017-04-07T04:55:27.835Z,1.07
2017-04-07T04:56:38.082Z,1.12
2017-04-07T04:57:48.332Z,1.07
2017-04-07T04:58:58.587Z,1.02
2017-04-07T05:00:08.527Z,0.99
2017-04-07T05:01:18.810Z,1.02
2017-04-07T05:02:29.069Z,1.12
2017-04-07T05:03:39.322Z,1.12
2017-04-07T05:04:49.576Z,1.09
2017-04-07T05:05:59.833Z,1.18
2017-04-07T05:07:10.088Z,1.24
2017-04-07T05:08:20.345Z,1.2
2017-04-07T05:09:30.603Z,1.24
2017-04-07T05:10:40.541Z,1.28
2017-04-07T05:11:50.809Z,1.48
2017-04-07T05:13:01.057Z,1.45
2017-04-07T05:14:11.304Z,1.48
2017-04-07T05:15:21.563Z,1.57
2017-04-07T05:16:31.826Z,1.6
2017-04-07T05:17:41.447Z,1.64
2017-04-07T05:18:51.696Z,1.71
2017-04-07T05:20:01.947Z,1.75
2017-04-07T05:21:12.199Z,1.81
2017-04-07T05:22:22.455Z,1.97
2017-04-07T05:23:32.711Z,1.92
2017-04-07T05:24:42.964Z,2.01
2017-04-07T05:25:53.217Z,2.03
2017-04-07T05:27:03.468Z,2.07
2017-04-07T05:28:13.412Z,2.14
2017-04-07T05:29:23.662Z,2.1
2017-04-07T05:30:33.609Z,2.14
2017-04-07T05:31:43.875Z,2.28
2017-04-07T05:32:54.122Z,2.26
2017-04-07T05:34:04.379Z,2.39
2017-04-07T05:35:14.633Z,2.37
2017-04-07T05:36:24.575Z,2.34
2017-04-07T05:37:34.826Z,2.28
2017-04-07T05:38:45.104Z,2.33
2017-04-07T05:39:55.363Z,2.34
2017-04-07T05:41:05.616Z,2.39
2017-04-07T05:42:15.870Z,2.28
2017-04-07T05:43:26.123Z,2.19
2017-04-07T05:44:36.384Z,2.25
2017-04-07T05:45:46.645Z,2.26
2017-04-07T05:46:56.901Z,2.26
2017-04-07T05:48:07.156Z,2.3
2017-04-07T05:49:17.104Z,2.26
2017-04-07T05:50:27.360Z,2.4
2017-04-07T05:51:37.615Z,2.34
2017-04-07T05:52:47.562Z,2.34
2017-04-07T05:53:57.819Z,2.36
2017-04-07T05:55:07.769Z,2.36
2017-04-07T05:56:17.731Z,2.3
2017-04-07T05:57:27.987Z,2.23
2017-04-07T05:58:37.925Z,2.19
2017-04-07T05:59:48.180Z,2.15
2017-04-07T06:00:58.160Z,2.33
2017-04-07T06:02:08.430Z,2.37
2017-04-07T06:03:18.377Z,2.36
2017-04-07T06:04:28.664Z,2.34
2017-04-07T06:05:38.919Z,2.47
2017-04-07T06:06:48.860Z,2.58
2017-04-07T06:07:59.122Z,2.57
2017-04-07T06:09:09.377Z,2.51
2017-04-07T06:10:19.633Z,2.52
2017-04-07T06:11:29.887Z,2.51
2017-04-07T06:12:40.147Z,2.51
2017-04-07T06:13:50.405Z,2.51
2017-04-07T06:15:00.658Z,2.58
2017-04-07T06:16:10.609Z,2.61
2017-04-07T06:17:20.866Z,2.58
2017-04-07T06:18:31.115Z,2.58
2017-04-07T06:19:41.063Z,2.64
2017-04-07T06:20:51.310Z,2.77
2017-04-07T06:22:01.568Z,2.91
2017-04-07T06:23:11.818Z,2.94
2017-04-07T06:24:22.103Z,3.13
2017-04-07T06:25:32.047Z,3.31
2017-04-07T06:26:42.329Z,3.37
2017-04-07T06:27:52.584Z,3.46
2017-04-07T06:29:02.843Z,3.58
2017-04-07T06:30:13.100Z,3.68
2017-04-07T06:31:23.358Z,3.74
2017-04-07T06:32:33.337Z,3.78
2017-04-07T06:33:42.963Z,3.88
2017-04-07T06:34:53.217Z,3.95
2017-04-07T06:36:03.473Z,4.1
2017-04-07T06:37:13.737Z,4.21
2017-04-07T06:38:23.994Z,4.25
2017-04-07T06:39:34.251Z,4.28
2017-04-07T06:40:44.507Z,4.32
2017-04-07T06:41:54.767Z,4.38
2017-04-07T06:43:05.031Z,4.46
2017-04-07T06:44:15.292Z,4.53
2017-04-07T06:45:25.553Z,4.56
2017-04-07T06:46:35.808Z,4.7
2017-04-07T06:47:45.747Z,4.83
2017-04-07T06:48:56.154Z,4.94
2017-04-07T06:50:06.440Z,5.04
2017-04-07T06:51:16.699Z,5.01
2017-04-07T06:52:26.954Z,5.22
2017-04-07T06:53:36.894Z,5.18
2017-04-07T06:54:47.153Z,5.19
2017-04-07T06:55:57.405Z,5.31
2017-04-07T06:57:07.662Z,5.33
2017-04-07T06:58:17.636Z,5.46
2017-04-07T06:59:27.890Z,5.47
2017-04-07T07:00:38.148Z,5.52
2017-04-07T07:01:48.410Z,5.73
2017-04-07T07:02:58.664Z,5.69
2017-04-07T07:04:08.920Z,5.61
2017-04-07T07:05:19.186Z,5.59
2017-04-07T07:06:29.452Z,5.59
2017-04-07T07:07:39.708Z,5.64
2017-04-07T07:08:49.965Z,5.64
2017-04-07T07:09:59.912Z,5.67
2017-04-07T07:11:10.171Z,5.74
2017-04-07T07:12:20.116Z,5.73
2017-04-07T07:13:30.371Z,5.81
2017-04-07T07:14:40.315Z,5.67
2017-04-07T07:15:50.582Z,5.61
2017-04-07T07:17:00.843Z,5.62
2017-04-07T07:18:10.845Z,5.69
2017-04-07T07:19:21.101Z,5.76
2017-04-07T07:20:31.359Z,5.8
2017-04-07T07:21:41.660Z,5.81
2017-04-07T07:22:51.922Z,5.77
2017-04-07T07:24:02.185Z,5.88
2017-04-07T07:25:12.480Z,5.88
2017-04-07T07:26:22.745Z,5.88
2017-04-07T07:27:33.003Z,5.91
2017-04-07T07:28:42.950Z,6.01
2017-04-07T07:29:53.211Z,6.02
2017-04-07T07:31:03.188Z,5.98
2017-04-07T07:32:13.453Z,6.01
2017-04-07T07:33:23.712Z,5.95
2017-04-07T07:34:33.971Z,5.99
2017-04-07T07:35:44.239Z,5.99
2017-04-07T07:36:54.509Z,6.09
2017-04-07T07:38:04.767Z,6.05
2017-04-07T07:39:15.018Z,6.05
2017-04-07T07:40:25.274Z,6.13
2017-04-07T07:41:35.220Z,6.15
2017-04-07T07:42:45.477Z,6.22
2017-04-07T07:43:55.421Z,6.16
2017-04-07T07:45:05.367Z,6.15
2017-04-07T07:46:15.629Z,6.35
2017-04-07T07:47:25.575Z,6.34
2017-04-07T07:48:35.836Z,6.38
2017-04-07T07:49:46.091Z,6.41
2017-04-07T07:50:56.346Z,6.41
2017-04-07T07:52:06.609Z,6.31
2017-04-07T07:53:16.553Z,6.36
2017-04-07T07:54:26.807Z,6.34
2017-04-07T07:55:36.744Z,6.31
2017-04-07T07:56:47.002Z,6.43
2017-04-07T07:57:56.940Z,6.49
2017-04-07T07:59:07.450Z,6.56
2017-04-07T08:00:17.707Z,6.57
2017-04-07T08:01:27.962Z,6.68
2017-04-07T08:02:37.909Z,6.78
2017-04-07T08:03:48.167Z,6.78
2017-04-07T08:04:58.432Z,6.87
2017-04-07T08:06:08.699Z,6.93
2017-04-07T08:07:18.647Z,6.97
2017-04-07T08:08:28.929Z,7.1
2017-04-07T08:09:39.189Z,7.08
2017-04-07T08:10:49.446Z,7.19
2017-04-07T08:11:59.708Z,7.13
2017-04-07T08:13:09.968Z,7.29
2017-04-07T08:14:20.225Z,7.36
2017-04-07T08:15:30.485Z,7.41
2017-04-07T08:16:40.450Z,7.4
2017-04-07T08:17:50.702Z,7.5
2017-04-07T08:19:00.964Z,7.58
2017-04-07T08:20:11.228Z,7.59
2017-04-07T08:21:21.495Z,7.64
2017-04-07T08:22:33.753Z,7.72
2017-04-07T08:23:44.010Z,7.7
2017-04-07T08:24:54.264Z,7.61
2017-04-07T08:26:04.523Z,7.59
2017-04-07T08:27:14.784Z,7.66
2017-04-07T08:28:25.046Z,7.59
2017-04-07T08:29:35.304Z,7.5
2017-04-07T08:30:45.640Z,7.32
2017-04-07T08:31:55.934Z,7.31
2017-04-07T08:33:06.192Z,7.28
2017-04-07T08:34:16.462Z,7.28
2017-04-07T08:35:26.713Z,7.29
2017-04-07T08:36:36.974Z,7.15
2017-04-07T08:37:47.235Z,7.29
2017-04-07T08:38:57.501Z,7.14
2017-04-07T08:40:07.453Z,7.21
2017-04-07T08:41:17.398Z,7.13
2017-04-07T08:42:27.653Z,7.14
2017-04-07T08:43:37.915Z,7.22
2017-04-07T08:44:48.171Z,7.32
2017-04-07T08:45:58.434Z,7.36
2017-04-07T08:47:08.691Z,7.48
2017-04-07T08:48:18.977Z,7.58
2017-04-07T08:49:29.232Z,7.66
2017-04-07T08:50:39.182Z,7.8
2017-04-07T08:51:49.132Z,7.87
2017-04-07T08:52:59.417Z,7.9
2017-04-07T08:54:09.679Z,8.09
2017-04-07T08:55:19.947Z,8.21
2017-04-07T08:56:30.203Z,8.28
2017-04-07T08:57:40.153Z,8.35
2017-04-07T08:58:50.412Z,8.39
2017-04-07T09:00:00.670Z,8.45
2017-04-07T09:01:10.645Z,8.57
2017-04-07T09:02:20.598Z,8.68
2017-04-07T09:03:30.859Z,8.71
2017-04-07T09:04:40.801Z,8.71
2017-04-07T09:05:51.062Z,8.81
2017-04-07T09:07:01.321Z,8.87
2017-04-07T09:08:11.581Z,8.93
2017-04-07T09:09:21.216Z,9.09
2017-04-07T09:10:31.471Z,9.11
2017-04-07T09:11:41.733Z,9.11
2017-04-07T09:12:52.002Z,9.11
2017-04-07T09:14:02.265Z,9.31
2017-04-07T09:15:12.525Z,9.37
2017-04-07T09:16:22.473Z,9.49
2017-04-07T09:17:32.740Z,9.26
2017-04-07T09:18:43.008Z,9.18
2017-04-07T09:19:53.277Z,9.21
2017-04-07T09:21:03.537Z,9.05
2017-04-07T09:22:13.798Z,8.93
2017-04-07T09:23:23.436Z,8.79
2017-04-07T09:24:33.694Z,8.81
2017-04-07T09:25:43.646Z,8.75
2017-04-07T09:26:53.906Z,8.72
2017-04-07T09:28:04.173Z,8.74
2017-04-07T09:29:14.432Z,8.61
2017-04-07T09:30:24.380Z,8.53
2017-04-07T09:31:34.641Z,8.36
2017-04-07T09:32:44.904Z,8.38
2017-04-07T09:33:55.217Z,8.35
2017-04-07T09:35:05.164Z,8.31
2017-04-07T09:36:15.120Z,8.36
2017-04-07T09:37:25.421Z,8.35
2017-04-07T09:38:35.681Z,8.39
2017-04-07T09:39:45.311Z,8.32
2017-04-07T09:40:55.580Z,8.42
2017-04-07T09:42:05.874Z,8.46
2017-04-07T09:43:16.141Z,8.53
2017-04-07T09:44:26.397Z,8.45
2017-04-07T09:45:36.340Z,8.56
2017-04-07T09:46:46.285Z,8.68
2017-04-07T09:47:56.561Z,8.64
2017-04-07T09:49:06.828Z,8.78
2017-04-07T09:50:17.090Z,8.97
2017-04-07T09:51:27.353Z,9.16
2017-04-07T09:52:37.621Z,9.3
2017-04-07T09:53:47.567Z,9.47
2017-04-07T09:54:57.823Z,9.62
2017-04-07T09:56:07.462Z,9.59
2017-04-07T09:57:17.718Z,9.72
2017-04-07T09:58:27.664Z,9.84
2017-04-07T09:59:37.926Z,9.84
2017-04-07T10:00:47.873Z,10.13
2017-04-07T10:01:58.138Z,10.12
2017-04-07T10:03:08.422Z,10.23
2017-04-07T10:04:18.371Z,10.41
2017-04-07T10:05:28.633Z,10.45
2017-04-07T10:06:38.892Z,10.53
2017-04-07T10:07:48.846Z,10.58
2017-04-07T10:08:59.102Z,10.62
2017-04-07T10:10:09.367Z,10.68
2017-04-07T10:11:19.634Z,10.72
2017-04-07T10:12:29.896Z,10.68
2017-04-07T10:13:40.162Z,10.82
2017-04-07T10:14:50.432Z,10.87
2017-04-07T10:16:00.692Z,11.01
2017-04-07T10:17:10.650Z,11.1
2017-04-07T10:18:20.601Z,11.01
2017-04-07T10:19:30.863Z,11
2017-04-07T10:20:40.810Z,11.07
2017-04-07T10:21:51.077Z,11.04
2017-04-07T10:23:01.345Z,11.18
2017-04-07T10:24:11.603Z,11.26
2017-04-07T10:25:23.561Z,11.35
2017-04-07T10:26:33.828Z,11.43
2017-04-07T10:27:44.088Z,11.44
2017-04-07T10:28:54.350Z,11.51
2017-04-07T10:30:04.622Z,11.59
2017-04-07T10:31:17.046Z,11.52
2017-04-07T10:32:26.994Z,11.56
2017-04-07T10:33:37.254Z,11.62
2017-04-07T10:34:47.521Z,11.6
2017-04-07T10:35:57.787Z,11.63
2017-04-07T10:37:07.742Z,11.63
2017-04-07T10:38:17.701Z,11.81
2017-04-07T10:39:27.959Z,11.93
2017-04-07T10:40:37.914Z,11.95
2017-04-07T10:41:47.863Z,12.03
2017-04-07T10:42:58.130Z,12.18
2017-04-07T10:44:08.409Z,12.15
2017-04-07T10:45:18.359Z,12.12
2017-04-07T10:46:28.623Z,12.2
2017-04-07T10:47:38.886Z,12.11
2017-04-07T10:48:49.184Z,12.28
2017-04-07T10:49:59.450Z,12.28
2017-04-07T10:51:09.714Z,12.26
2017-04-07T10:52:19.670Z,12.32
2017-04-07T10:53:29.946Z,12.47
2017-04-07T10:54:39.897Z,12.47
2017-04-07T10:55:49.848Z,12.53
2017-04-07T10:57:00.111Z,12.65
2017-04-07T10:58:09.754Z,12.8
2017-04-07T10:59:20.019Z,12.88
2017-04-07T11:00:29.972Z,13.05
2017-04-07T11:01:40.248Z,13.09
2017-04-07T11:02:50.197Z,13.09
2017-04-07T11:04:00.459Z,13.12
2017-04-07T11:05:10.721Z,13.05
2017-04-07T11:06:20.677Z,13.13
2017-04-07T11:07:30.939Z,13.28
2017-04-07T11:08:41.202Z,13.24
2017-04-07T11:09:51.475Z,13.43
2017-04-07T11:11:01.739Z,13.5
2017-04-07T11:12:12.005Z,13.75
2017-04-07T11:13:22.263Z,13.83
2017-04-07T11:14:32.205Z,13.79
2017-04-07T11:15:42.166Z,14.07
2017-04-07T11:16:52.433Z,14.41
2017-04-07T11:18:02.074Z,14.48
2017-04-07T11:19:12.347Z,14.9
2017-04-07T11:20:22.652Z,15.35
2017-04-07T11:21:32.914Z,15.7
2017-04-07T11:22:43.178Z,16.03
2017-04-07T11:23:53.447Z,16.51
2017-04-07T11:25:03.722Z,16.8
2017-04-07T11:26:14.006Z,17.01
2017-04-07T11:27:24.286Z,17.23
2017-04-07T11:28:34.556Z,17.73
2017-04-07T11:29:44.518Z,17.95
2017-04-07T11:30:54.787Z,18.06
2017-04-07T11:32:05.061Z,18.18
2017-04-07T11:33:14.710Z,18.42
2017-04-07T11:34:24.980Z,18.71
2017-04-07T11:35:35.260Z,19.17
2017-04-07T11:36:45.537Z,19.34
2017-04-07T11:37:55.817Z,19.47
2017-04-07T11:39:06.093Z,19.71
2017-04-07T11:40:16.369Z,19.96
2017-04-07T11:41:26.013Z,20.27
2017-04-07T11:42:35.975Z,20.14
2017-04-07T11:43:46.252Z,19.99
2017-04-07T11:44:56.540Z,19.94
2017-04-07T11:46:06.830Z,19.78
2017-04-07T11:47:17.102Z,19.87
2017-04-07T11:48:27.063Z,19.78
2017-04-07T11:49:37.373Z,19.6
2017-04-07T11:50:47.649Z,19.87
2017-04-07T11:51:57.307Z,19.7
2017-04-07T11:53:07.772Z,20.04
2017-04-07T11:54:17.740Z,19.71
2017-04-07T11:55:28.045Z,20.37
2017-04-07T11:56:38.010Z,21.1
2017-04-07T11:57:47.976Z,21.32
2017-04-07T11:58:57.936Z,21.78
2017-04-07T12:00:07.909Z,21.75
2017-04-07T12:01:18.188Z,22.25
2017-04-07T12:02:28.468Z,22.37
2017-04-07T12:03:38.445Z,22.43
2017-04-07T12:04:48.722Z,22.73
2017-04-07T12:05:58.684Z,22.59
2017-04-07T12:07:08.996Z,22.56
2017-04-07T12:08:19.282Z,22.81
2017-04-07T12:09:29.605Z,23.1
2017-04-07T12:10:39.892Z,22.8
2017-04-07T12:11:49.857Z,22.67
2017-04-07T12:12:59.825Z,22.34
2017-04-07T12:14:10.106Z,22.58
2017-04-07T12:15:20.382Z,22.88
2017-04-07T12:16:30.662Z,22.86
2017-04-07T12:17:40.630Z,23.1
2017-04-07T12:18:50.626Z,22.81
2017-04-07T12:20:00.909Z,22.99
2017-04-07T12:21:11.194Z,22.38
2017-04-07T12:22:21.163Z,22.71
2017-04-07T12:23:31.440Z,23.14
2017-04-07T12:24:41.738Z,23.56
2017-04-07T12:25:51.703Z,23.96
2017-04-07T12:27:01.978Z,24.1
2017-04-07T12:28:11.955Z,24.43
2017-04-07T12:29:22.242Z,24.43
2017-04-07T12:30:32.523Z,24.16
2017-04-07T12:31:42.799Z,23.99
2017-04-07T12:32:52.450Z,24.19
2017-04-07T12:34:02.424Z,23.82
2017-04-07T12:35:12.699Z,23.37
2017-04-07T12:36:22.667Z,23.34
2017-04-07T12:37:32.673Z,23.36
2017-04-07T12:38:42.954Z,23.28
2017-04-07T12:39:53.241Z,22.83
2017-04-07T12:41:03.521Z,22.18
2017-04-07T12:42:13.815Z,21.22
2017-04-07T12:43:23.476Z,20.85
2017-04-07T12:44:33.759Z,20.18
2017-04-07T12:45:43.725Z,20.21
2017-04-07T12:46:54.005Z,20.64
2017-04-07T12:48:04.278Z,21.04
2017-04-07T12:49:14.557Z,21.4
2017-04-07T12:50:24.207Z,21.48
2017-04-07T12:51:34.488Z,21.85
2017-04-07T12:52:44.768Z,21.85
2017-04-07T12:53:55.052Z,21.96
2017-04-07T12:55:05.322Z,22.34
2017-04-07T12:56:15.603Z,22.59
2017-04-07T12:57:25.888Z,22.86
2017-04-07T12:58:36.163Z,23.28
2017-04-07T12:59:45.811Z,23.85
2017-04-07T13:00:56.087Z,23.96
2017-04-07T13:02:06.055Z,23.88
2017-04-07T13:03:16.333Z,23.64
2017-04-07T13:04:26.616Z,23.56
2017-04-07T13:05:36.895Z,23.55
2017-04-07T13:06:47.186Z,23.32
2017-04-07T13:07:57.469Z,22.92
2017-04-07T13:09:07.831Z,22.44
2017-04-07T13:10:18.108Z,22.46
2017-04-07T13:11:28.078Z,22.41
2017-04-07T13:12:38.358Z,22.67
2017-04-07T13:13:48.637Z,23.02
2017-04-07T13:14:58.601Z,23.56
2017-04-07T13:16:08.569Z,23.99
2017-04-07T13:17:18.879Z,23.58
2017-04-07T13:18:29.157Z,22.28
2017-04-07T13:19:39.434Z,22.16
2017-04-07T13:20:49.711Z,21.92
2017-04-07T13:21:59.986Z,22.26
2017-04-07T13:23:09.644Z,22.44
2017-04-07T13:24:19.924Z,21.91
2017-04-07T13:25:29.894Z,22.1
2017-04-07T13:26:40.177Z,22.51
2017-04-07T13:27:50.147Z,22.46
2017-04-07T13:29:00.436Z,22.1
2017-04-07T13:30:10.714Z,21.88
2017-04-07T13:31:20.693Z,21.08
2017-04-07T13:32:30.664Z,20.6
2017-04-07T13:33:40.941Z,20.67
2017-04-07T13:34:51.229Z,20.82
2017-04-07T13:36:01.507Z,20.48
2017-04-07T13:37:11.792Z,20.52
2017-04-07T13:38:22.075Z,20.75
2017-04-07T13:39:32.357Z,20.66
2017-04-07T13:40:42.634Z,20.89
2017-04-07T13:41:52.908Z,20.49
2017-04-07T13:43:03.184Z,20.6
2017-04-07T13:44:13.146Z,20.9
2017-04-07T13:45:23.428Z,20.63
2017-04-07T13:46:33.702Z,20.6
2017-04-07T13:47:44.002Z,20.63
2017-04-07T13:48:54.282Z,20.6
2017-04-07T13:50:04.255Z,20.9
2017-04-07T13:51:14.531Z,20.92
2017-04-07T13:52:24.804Z,21.62
2017-04-07T13:53:34.764Z,22.04
2017-04-07T13:54:45.040Z,22.26
2017-04-07T13:55:55.034Z,22.52
2017-04-07T13:57:04.995Z,22.62
2017-04-07T13:58:15.278Z,22.95
2017-04-07T13:59:25.551Z,22.98
2017-04-07T14:00:35.824Z,22.91
2017-04-07T14:01:46.110Z,22.88
2017-04-07T14:02:56.388Z,22.74
2017-04-07T14:04:06.666Z,22.63
2017-04-07T14:05:16.943Z,22.16
2017-04-07T14:06:27.223Z,22.1
2017-04-07T14:07:37.509Z,21.77
2017-04-07T14:08:47.789Z,21.75
2017-04-07T14:09:58.073Z,21.68
2017-04-07T14:11:08.349Z,21.45
2017-04-07T14:12:18.619Z,21.75
2017-04-07T14:13:28.891Z,21.74
2017-04-07T14:14:39.178Z,21.6
2017-04-07T14:15:49.462Z,21.59
2017-04-07T14:16:59.736Z,21.51
2017-04-07T14:18:09.382Z,21.43
2017-04-07T14:19:19.659Z,21.58
2017-04-07T14:20:29.931Z,21.45
2017-04-07T14:21:39.900Z,21.56
2017-04-07T14:22:50.177Z,22.18
2017-04-07T14:24:00.445Z,22.71
2017-04-07T14:25:10.724Z,22.65
2017-04-07T14:26:20.683Z,22.8
2017-04-07T14:27:30.972Z,23.18
2017-04-07T14:28:41.242Z,23.42
2017-04-07T14:29:51.524Z,23.47
2017-04-07T14:31:01.795Z,23.32
2017-04-07T14:32:12.075Z,23.17
2017-04-07T14:33:22.360Z,22.95
2017-04-07T14:34:32.645Z,22.67
2017-04-07T14:35:42.923Z,22.23
2017-04-07T14:36:53.196Z,22.04
2017-04-07T14:38:03.483Z,21.81
2017-04-07T14:39:13.444Z,21.51
2017-04-07T14:40:23.716Z,21.32
2017-04-07T14:41:33.984Z,21.13
2017-04-07T14:42:44.264Z,21.07
2017-04-07T14:43:54.538Z,20.95
2017-04-07T14:45:04.824Z,20.77
2017-04-07T14:46:15.099Z,20.71
2017-04-07T14:47:25.378Z,20.49
2017-04-07T14:48:35.338Z,20.42
2017-04-07T14:49:45.623Z,20.37
2017-04-07T14:50:55.904Z,20.32
2017-04-07T14:52:06.171Z,20.32
2017-04-07T14:53:16.141Z,20.14
2017-04-07T14:54:26.425Z,20.17
2017-04-07T14:55:36.385Z,19.9
2017-04-07T14:56:46.654Z,19.92
2017-04-07T14:57:56.300Z,19.9
2017-04-07T14:59:06.258Z,19.87
2017-04-07T15:00:16.528Z,19.79
2017-04-07T15:01:26.806Z,19.75
2017-04-07T15:02:36.447Z,19.74
2017-04-07T15:03:46.736Z,19.79
2017-04-07T15:04:57.005Z,19.62
2017-04-07T15:06:07.283Z,19.59
2017-04-07T15:07:17.559Z,19.52
2017-04-07T15:08:27.831Z,19.29
2017-04-07T15:09:38.101Z,19.23
2017-04-07T15:10:47.746Z,19.23
2017-04-07T15:11:58.019Z,19.09
2017-04-07T15:13:08.293Z,19.05
2017-04-07T15:14:18.568Z,18.89
2017-04-07T15:15:28.836Z,18.78
2017-04-07T15:16:39.113Z,18.82
2017-04-07T15:17:49.384Z,18.81
2017-04-07T15:18:59.656Z,18.67
2017-04-07T15:20:09.927Z,18.66
2017-04-07T15:21:20.195Z,18.48
2017-04-07T15:22:30.466Z,18.34
2017-04-07T15:23:40.752Z,18.08
2017-04-07T15:24:51.021Z,17.97
2017-04-07T15:26:01.328Z,17.8
2017-04-07T15:27:11.602Z,17.59
2017-04-07T15:28:21.876Z,17.39
2017-04-07T15:29:32.149Z,17.38
2017-04-07T15:30:42.419Z,17.2